Impacts TAF Board
For situational awareness. Not to be used for flight planning purposes.
IDs:

KTIX - Titusville/Space Coa, FL, US

Issued at 1749 UTC 21 Sep 2021
Updated at 2100 UTC 21 Sep 2021
Potential Impact None Slight Moderate High
Time2047Z 21/21Z 21/22Z 21/23Z 22/00Z 22/01Z 22/02Z 22/03Z 22/04Z 22/05Z 22/06Z 22/07Z 22/08Z 22/09Z>>
Type OBS PRVL PRVL PRVL PRVL PRVL PRVL PRVL PRVL PRVL PRVL PRVL PRVL PRVL
VIS 7 >6 >6 5 5 >6 >6 >6 >6 >6 >6 >6 >6 >6
CIG 15 -- -- 200 200 -- -- -- -- -- -- -- -- --
Cover BKN SCT SCT BKN BKN SCT SCT SCT SCT SCT SCT SCT SCT SCT
FltCat MVFR VFR VFR MVFR MVFR VFR VFR VFR VFR VFR VFR VFR VFR VFR
WX -- VCTS VCTS -SHRA -SHRA -- -- -- -- -- -- -- -- --
WDir 140 110 110 130 130 VRB VRB VRB VRB VRB VRB VRB VRB VRB
WSpd 5 9 9 7 7 4 4 4 4 4 4 4 4 4
WGst -- -- -- -- -- -- -- -- -- -- -- -- -- --
Raw TAF
KTIX 211749Z 2118/2218 11009KT P6SM VCTS SCT030CB SCT050
  FM212300 13007KT 5SM -SHRA SCT035 BKN200
  FM220100 VRB04KT P6SM FEW035 SCT150


Raw METAR
KTIX 212047Z 14005KT 7SM BKN015 BKN020 29/25 A3002
KTIX 211947Z 13005KT 7SM SCT015 BKN100 30/24 A3004
KTIX 211847Z 12010KT 7SM SCT020 BKN070 31/25 A3005
KTIX 211747Z 10005KT 7SM SCT020 BKN100 28/27 A3007

METAR Board
Radar Display
Forecast Discussion
For situational awareness. Not to be used for flight planning purposes.